createdAt,value
2022-11-05T00:03:40.613Z,31.83
2022-11-05T00:09:01.118Z,33.50
2022-11-05T00:14:21.627Z,34.42
2022-11-05T00:19:23.378Z,29.42
2022-11-05T00:24:44.159Z,28.75
2022-11-05T00:29:45.907Z,31.45
2022-11-05T00:34:48.078Z,30.85
2022-11-05T00:39:50.083Z,30.70
2022-11-05T00:45:00.866Z,29.98
2022-11-05T00:50:03.071Z,27.02
2022-11-05T00:55:04.981Z,28.08
2022-11-05T01:00:07.279Z,31.02
2022-11-05T01:05:09.437Z,27.70
2022-11-05T01:10:11.378Z,32.33
2022-11-05T01:15:19.886Z,29.83
2022-11-05T01:20:23.175Z,28.20
2022-11-05T01:25:25.440Z,30.42
2022-11-05T01:30:27.268Z,30.83
2022-11-05T01:35:29.597Z,27.35
2022-11-05T01:40:31.430Z,26.55
2022-11-05T01:45:34.494Z,29.85
2022-11-05T01:50:51.392Z,30.48
2022-11-05T01:56:02.424Z,30.15
2022-11-05T02:01:04.449Z,47.58
2022-11-05T02:06:09.449Z,29.45
2022-11-05T02:11:17.551Z,31.70
2022-11-05T02:17:03.991Z,27.20
2022-11-05T02:22:27.104Z,32.50
2022-11-05T02:27:54.020Z,35.25
2022-11-05T02:33:29.249Z,32.22
2022-11-05T02:38:58.375Z,26.75
2022-11-05T02:44:47.917Z,25.90
2022-11-05T02:49:59.288Z,31.15
2022-11-05T02:55:32.420Z,33.88
2022-11-05T03:00:51.103Z,33.55
2022-11-05T03:06:22.890Z,28.35
2022-11-05T03:11:28.638Z,27.75
2022-11-05T03:16:42.540Z,27.48
2022-11-05T03:21:56.323Z,30.10
2022-11-05T03:27:15.200Z,31.42
2022-11-05T03:32:20.652Z,29.00
2022-11-05T03:37:24.254Z,30.25
2022-11-05T03:47:37.711Z,29.67
2022-11-05T03:52:47.098Z,26.17
2022-11-05T03:57:53.737Z,28.63
2022-11-05T04:02:55.999Z,33.00
2022-11-05T04:08:16.387Z,29.85
2022-11-05T04:13:24.279Z,27.98
2022-11-05T04:18:26.281Z,28.80
2022-11-05T04:23:46.651Z,33.45
2022-11-05T04:29:08.113Z,30.90
2022-11-05T04:34:10.195Z,31.70
2022-11-05T04:39:12.134Z,31.42
2022-11-05T04:44:15.491Z,30.98
2022-11-05T04:49:17.252Z,33.45
2022-11-05T04:54:19.089Z,36.05
2022-11-05T04:59:20.915Z,29.50
2022-11-05T05:04:22.736Z,33.85
2022-11-05T05:09:24.567Z,33.30
2022-11-05T05:14:26.404Z,32.70
2022-11-05T05:19:29.066Z,36.00
2022-11-05T05:24:30.836Z,31.08
2022-11-05T05:29:32.691Z,31.50
2022-11-05T05:34:34.964Z,33.83
2022-11-05T05:39:36.823Z,31.92
2022-11-05T05:44:39.189Z,32.25
2022-11-05T05:49:40.963Z,38.90
2022-11-05T05:54:43.195Z,32.65
2022-11-05T05:59:45.346Z,32.70
2022-11-05T06:04:47.170Z,36.30
2022-11-05T06:09:48.999Z,33.78
2022-11-05T06:14:50.940Z,29.90
2022-11-05T06:19:52.870Z,31.45
2022-11-05T06:24:54.697Z,34.35
2022-11-05T06:29:56.656Z,38.60
2022-11-05T06:34:58.682Z,30.98
2022-11-05T06:40:00.584Z,31.98
2022-11-05T06:45:02.424Z,34.15
2022-11-05T06:50:04.570Z,36.20
2022-11-05T06:55:07.031Z,38.60
2022-11-05T07:00:09.548Z,36.10
2022-11-05T07:05:11.976Z,38.97
2022-11-05T07:10:16.622Z,37.05
2022-11-05T07:15:18.552Z,33.78
2022-11-05T07:20:20.498Z,37.08
2022-11-05T07:25:22.239Z,56.15
2022-11-05T07:30:24.268Z,49.78
2022-11-05T07:35:26.789Z,39.40
2022-11-05T07:40:29.779Z,46.70
2022-11-05T07:45:32.427Z,38.07
2022-11-05T07:50:36.663Z,34.13
2022-11-05T07:55:40.784Z,36.28
2022-11-05T08:00:43.028Z,40.90
2022-11-05T08:05:46.666Z,44.15
2022-11-05T08:10:48.498Z,42.00
2022-11-05T08:15:50.292Z,43.25
2022-11-05T08:20:52.067Z,53.90
2022-11-05T08:25:54.732Z,46.20
2022-11-05T08:30:57.066Z,46.08
2022-11-05T08:36:03.204Z,46.63
2022-11-05T08:41:05.582Z,44.60
2022-11-05T08:46:07.352Z,48.03
2022-11-05T08:51:09.201Z,42.78
2022-11-05T08:56:10.993Z,42.97
2022-11-05T09:01:13.120Z,45.33
2022-11-05T09:06:14.887Z,44.78
2022-11-05T09:11:18.141Z,50.00
2022-11-05T09:16:24.303Z,44.50
2022-11-05T09:21:26.311Z,45.85
2022-11-05T09:26:28.083Z,50.08
2022-11-05T09:31:29.887Z,72.68
2022-11-05T09:36:31.778Z,49.30
2022-11-05T09:41:38.803Z,47.83
2022-11-05T09:46:54.727Z,46.67
2022-11-05T09:51:58.063Z,55.10
2022-11-05T09:57:02.775Z,50.45
2022-11-05T10:02:15.679Z,52.45
2022-11-05T10:07:21.546Z,54.13
2022-11-05T10:12:30.230Z,50.72
2022-11-05T10:17:39.049Z,44.85
2022-11-05T10:22:46.499Z,48.65
2022-11-05T10:27:54.724Z,63.28
2022-11-05T10:32:59.333Z,52.47
2022-11-05T10:38:02.427Z,77.95
2022-11-05T10:43:10.761Z,47.77
2022-11-05T10:48:32.596Z,199.40
2022-11-05T10:53:51.072Z,95.75
2022-11-05T10:58:56.658Z,84.05
2022-11-05T11:04:37.724Z,62.13
2022-11-05T11:09:48.385Z,61.20
2022-11-05T11:15:15.947Z,52.58
2022-11-05T11:20:22.802Z,59.35
2022-11-05T11:25:27.234Z,60.90
2022-11-05T11:30:29.264Z,65.95
2022-11-05T11:35:31.343Z,51.30
2022-11-05T11:40:37.194Z,61.70
2022-11-05T11:45:49.280Z,59.17
2022-11-05T11:50:51.363Z,53.78
2022-11-05T11:55:56.476Z,50.45
2022-11-05T12:01:20.993Z,97.53
2022-11-05T12:06:53.200Z,57.95
2022-11-05T12:12:10.984Z,60.08
2022-11-05T12:17:50.474Z,59.00
2022-11-05T12:23:14.562Z,52.10
2022-11-05T12:28:57.867Z,58.60
2022-11-05T12:34:06.383Z,60.15
2022-11-05T12:39:35.167Z,58.83
2022-11-05T12:45:10.559Z,56.80
2022-11-05T12:50:28.486Z,61.45
2022-11-05T12:55:37.772Z,50.28
2022-11-05T13:00:44.488Z,53.03
2022-11-05T13:05:54.973Z,51.78
2022-11-05T13:11:10.376Z,42.30
2022-11-05T13:16:30.725Z,49.70
2022-11-05T13:21:36.035Z,45.72
2022-11-05T13:26:47.807Z,48.05
2022-11-05T13:32:28.037Z,59.30
2022-11-05T13:37:57.739Z,68.65
2022-11-05T13:43:08.838Z,49.28
2022-11-05T13:48:32.158Z,56.80
2022-11-05T13:54:02.037Z,52.40
2022-11-05T13:59:23.528Z,57.15
2022-11-05T14:04:37.775Z,59.00
2022-11-05T14:09:40.821Z,51.10
2022-11-05T14:14:48.680Z,56.22
2022-11-05T14:20:05.402Z,137.05
2022-11-05T14:25:19.398Z,141.90
2022-11-05T14:30:42.788Z,82.47
2022-11-05T14:35:44.932Z,82.10
2022-11-05T14:40:47.835Z,91.82
2022-11-05T14:45:57.211Z,106.40
2022-11-05T14:50:59.759Z,78.53
2022-11-05T14:56:17.995Z,67.68
2022-11-05T15:01:32.474Z,66.80
2022-11-05T15:06:36.350Z,57.97
2022-11-05T15:11:41.672Z,79.00
2022-11-05T15:16:47.570Z,69.30
2022-11-05T15:21:50.074Z,63.83
2022-11-05T15:27:03.524Z,55.53
2022-11-05T15:32:14.622Z,69.95
2022-11-05T15:37:16.515Z,55.00
2022-11-05T15:42:22.910Z,67.75
2022-11-05T15:47:31.757Z,61.90
2022-11-05T15:52:37.168Z,81.68
2022-11-05T15:57:49.347Z,67.68
2022-11-05T16:03:14.751Z,76.38
2022-11-05T16:08:22.617Z,64.28
2022-11-05T16:13:35.055Z,65.50
2022-11-05T16:18:40.204Z,71.45
2022-11-05T16:23:54.428Z,70.85
2022-11-05T16:28:57.850Z,61.83
2022-11-05T16:34:00.050Z,70.85
2022-11-05T16:39:02.092Z,89.80
2022-11-05T16:44:04.087Z,82.38
2022-11-05T16:49:06.016Z,90.07
2022-11-05T16:54:08.609Z,88.32
2022-11-05T16:59:13.800Z,351.60
2022-11-05T17:04:15.663Z,516.10
2022-11-05T17:09:17.758Z,292.40
2022-11-05T17:14:19.806Z,396.40
2022-11-05T17:19:21.730Z,143.60
2022-11-05T17:24:24.011Z,169.40
2022-11-05T17:29:26.006Z,161.13
2022-11-05T17:34:28.116Z,104.47
2022-11-05T17:39:31.879Z,98.55
2022-11-05T17:44:33.994Z,105.60
2022-11-05T17:49:36.103Z,98.28
2022-11-05T17:54:38.357Z,76.82
2022-11-05T17:59:42.035Z,76.63
2022-11-05T18:09:45.877Z,90.03
2022-11-05T18:14:47.743Z,130.13
2022-11-05T18:19:49.690Z,95.78
2022-11-05T18:24:51.567Z,72.45
2022-11-05T18:29:54.762Z,67.47
2022-11-05T18:34:57.691Z,61.03
2022-11-05T18:40:00.898Z,66.22
2022-11-05T18:45:04.453Z,64.68
2022-11-05T18:50:08.175Z,62.05
2022-11-05T18:55:11.267Z,77.93
2022-11-05T19:00:13.826Z,59.42
2022-11-05T19:05:28.898Z,59.22
2022-11-05T19:10:31.865Z,57.92
2022-11-05T19:15:34.074Z,58.63
2022-11-05T19:20:37.981Z,48.75
2022-11-05T19:25:44.245Z,50.88
2022-11-05T19:30:46.276Z,62.55
2022-11-05T19:35:48.270Z,53.33
2022-11-05T19:40:50.347Z,51.80
2022-11-05T19:45:52.320Z,44.28
2022-11-05T19:50:54.678Z,41.47
2022-11-05T19:55:57.959Z,43.17
2022-11-05T20:00:59.931Z,35.40
2022-11-05T20:06:09.799Z,32.78
2022-11-05T20:11:12.123Z,34.80
2022-11-05T20:16:37.008Z,40.45
2022-11-05T20:21:40.020Z,33.28
2022-11-05T20:26:42.586Z,33.77
2022-11-05T20:31:46.588Z,30.85
2022-11-05T20:36:48.442Z,25.85
2022-11-05T20:41:50.325Z,24.23
2022-11-05T20:46:52.231Z,25.73
2022-11-05T20:51:55.031Z,23.67
2022-11-05T20:56:58.723Z,25.57
2022-11-05T21:02:00.709Z,25.88
2022-11-05T21:07:02.855Z,27.85
2022-11-05T21:12:10.497Z,25.42
2022-11-05T21:17:14.360Z,28.98
2022-11-05T21:22:18.415Z,27.67
2022-11-05T21:27:20.297Z,39.22
2022-11-05T21:32:23.919Z,42.63
2022-11-05T21:37:25.907Z,31.88
2022-11-05T21:42:29.762Z,38.13
2022-11-05T21:47:31.743Z,33.40
2022-11-05T21:52:52.299Z,38.78
2022-11-05T21:58:13.020Z,34.95
2022-11-05T22:03:15.496Z,28.08
2022-11-05T22:08:17.375Z,36.00
2022-11-05T22:13:19.435Z,32.28
2022-11-05T22:18:21.400Z,36.58
2022-11-05T22:23:23.325Z,40.55
2022-11-05T22:28:25.251Z,33.42
2022-11-05T22:33:27.231Z,33.83
2022-11-05T22:38:30.775Z,37.03
2022-11-05T22:43:32.895Z,42.53
2022-11-05T22:48:41.833Z,40.50
2022-11-05T22:53:51.111Z,40.50
2022-11-05T22:58:53.539Z,36.75
2022-11-05T23:03:57.627Z,40.60
2022-11-05T23:09:19.335Z,35.55
2022-11-05T23:14:21.391Z,43.92
2022-11-05T23:19:42.226Z,39.00
2022-11-05T23:24:44.191Z,42.63
2022-11-05T23:29:46.629Z,41.05
2022-11-05T23:34:48.959Z,36.95
2022-11-05T23:39:51.228Z,38.45
2022-11-05T23:45:14.399Z,39.58
2022-11-05T23:50:16.954Z,41.50
2022-11-05T23:55:19.361Z,38.53
